createdAt,value
2022-08-26T00:02:57.704Z,4.15
2022-08-26T00:13:03.816Z,4.45
2022-08-26T00:23:24.154Z,4.40
2022-08-26T00:33:29.839Z,4.50
2022-08-26T00:43:46.152Z,4.97
2022-08-26T00:54:10.730Z,4.03
2022-08-26T01:04:19.648Z,4.65
2022-08-26T01:14:28.499Z,4.20
2022-08-26T01:24:37.350Z,4.47
2022-08-26T01:34:41.691Z,4.65
2022-08-26T01:44:52.346Z,4.53
2022-08-26T01:54:58.673Z,4.63
2022-08-26T02:05:10.853Z,4.63
2022-08-26T02:15:14.868Z,4.47
2022-08-26T02:25:29.428Z,4.50
2022-08-26T02:35:34.841Z,4.97
2022-08-26T02:45:41.166Z,4.68
2022-08-26T02:55:45.155Z,4.60
2022-08-26T03:05:55.105Z,4.60
2022-08-26T03:16:13.355Z,4.75
2022-08-26T03:26:18.425Z,5.13
2022-08-26T03:36:23.218Z,6.50
2022-08-26T03:46:30.024Z,5.60
2022-08-26T03:56:34.712Z,5.55
2022-08-26T04:06:47.988Z,5.55
2022-08-26T04:16:55.245Z,5.70
2022-08-26T04:27:03.332Z,6.20
2022-08-26T04:37:07.842Z,5.70
2022-08-26T04:47:13.208Z,5.85
2022-08-26T04:57:17.241Z,5.78
2022-08-26T05:07:22.365Z,5.63
2022-08-26T05:17:30.008Z,5.50
2022-08-26T05:27:38.047Z,12.20
2022-08-26T05:37:42.253Z,5.78
2022-08-26T05:47:49.510Z,7.00
2022-08-26T05:57:55.470Z,6.80
2022-08-26T06:08:14.099Z,7.18
2022-08-26T06:18:20.920Z,7.43
2022-08-26T06:28:27.046Z,6.68
2022-08-26T06:38:30.835Z,6.97
2022-08-26T06:48:36.110Z,6.88
2022-08-26T06:58:42.363Z,6.93
2022-08-26T07:08:47.898Z,7.55
2022-08-26T07:18:53.868Z,7.47
2022-08-26T07:29:00.925Z,5.75
2022-08-26T07:39:05.411Z,6.80
2022-08-26T07:49:11.482Z,6.18
2022-08-26T07:59:16.686Z,6.28
2022-08-26T08:09:22.417Z,6.90
2022-08-26T08:19:28.385Z,6.35
2022-08-26T08:29:42.201Z,6.88
2022-08-26T08:39:45.901Z,7.15
2022-08-26T08:49:51.224Z,6.75
2022-08-26T09:00:02.476Z,6.95
2022-08-26T09:10:28.895Z,6.80
2022-08-26T09:20:47.516Z,6.00
2022-08-26T09:31:13.117Z,6.10
2022-08-26T09:41:31.523Z,5.72
2022-08-26T09:51:36.682Z,5.93
2022-08-26T10:01:43.664Z,5.90
2022-08-26T10:11:55.187Z,5.90
2022-08-26T10:22:05.133Z,5.57
2022-08-26T10:32:17.789Z,5.75
2022-08-26T10:42:29.541Z,5.30
2022-08-26T10:52:50.243Z,5.28
2022-08-26T11:03:00.194Z,5.25
2022-08-26T11:13:06.850Z,4.95
2022-08-26T11:23:50.569Z,4.80
2022-08-26T11:33:59.474Z,4.75
2022-08-26T11:44:09.183Z,5.22
2022-08-26T11:54:17.589Z,5.28
2022-08-26T12:04:42.524Z,6.00
2022-08-26T12:14:47.606Z,8.50
2022-08-26T12:24:58.448Z,10.98
2022-08-26T12:45:11.542Z,9.13
2022-08-26T12:55:24.790Z,8.02
2022-08-26T13:05:34.070Z,7.65
2022-08-26T13:15:44.691Z,8.35
2022-08-26T13:25:49.368Z,6.93
2022-08-26T13:35:54.797Z,5.35
2022-08-26T13:45:58.642Z,7.80
2022-08-26T13:56:10.873Z,7.68
2022-08-26T14:06:15.271Z,9.90
2022-08-26T14:16:27.505Z,9.48
2022-08-26T14:26:31.593Z,8.70
2022-08-26T14:36:39.903Z,7.50
2022-08-26T14:46:47.705Z,7.13
2022-08-26T14:56:55.958Z,8.85
2022-08-26T15:07:01.780Z,9.73
2022-08-26T15:17:06.988Z,10.30
2022-08-26T15:27:10.803Z,12.65
2022-08-26T15:37:16.048Z,17.40
2022-08-26T15:47:20.127Z,18.00
2022-08-26T15:57:25.464Z,14.80
2022-08-26T16:07:30.806Z,13.98
2022-08-26T16:17:35.931Z,12.30
2022-08-26T16:27:39.748Z,12.52
2022-08-26T16:37:45.756Z,13.07
2022-08-26T16:47:50.760Z,12.90
2022-08-26T16:57:55.946Z,14.90
2022-08-26T17:08:01.612Z,17.38
2022-08-26T17:18:08.946Z,17.95
2022-08-26T17:28:13.633Z,17.33
2022-08-26T17:38:18.733Z,25.85
2022-08-26T17:48:22.465Z,25.52
2022-08-26T17:58:27.626Z,25.75
2022-08-26T18:08:33.214Z,25.77
2022-08-26T18:18:39.131Z,23.95
2022-08-26T18:28:42.905Z,22.63
2022-08-26T18:38:50.436Z,20.00
2022-08-26T18:48:56.804Z,17.70
2022-08-26T18:59:02.530Z,16.23
2022-08-26T19:09:11.872Z,17.55
2022-08-26T19:19:20.999Z,15.90
2022-08-26T19:29:29.519Z,17.40
2022-08-26T19:39:36.011Z,15.57
2022-08-26T19:49:40.139Z,15.10
2022-08-26T19:59:47.464Z,15.10
2022-08-26T20:09:51.299Z,14.60
2022-08-26T20:20:26.954Z,14.52
2022-08-26T20:30:37.445Z,14.90
2022-08-26T20:40:44.348Z,14.20
2022-08-26T20:50:49.184Z,13.90
2022-08-26T21:00:54.432Z,12.93
2022-08-26T21:10:58.318Z,13.38
2022-08-26T21:21:06.296Z,14.75
2022-08-26T21:31:13.345Z,12.55
2022-08-26T21:41:29.477Z,13.15
2022-08-26T21:51:36.318Z,12.52
2022-08-26T22:01:41.798Z,12.02
2022-08-26T22:11:46.378Z,12.02
2022-08-26T22:21:53.427Z,12.18
2022-08-26T22:31:57.272Z,11.25
2022-08-26T22:42:03.897Z,10.90
2022-08-26T22:52:07.692Z,10.00
2022-08-26T23:02:13.109Z,9.30
2022-08-26T23:12:16.967Z,8.73
2022-08-26T23:22:22.111Z,9.13
2022-08-26T23:32:25.907Z,9.43
2022-08-26T23:42:31.095Z,9.65
2022-08-26T23:52:52.112Z,8.18
